Time;durP1;ratioP1;P1;durP2;ratioP2;P2;SDS_P1;SDS_P2;PMS_P1;PMS_P2;Temp;Humidity;BMP_temperature;BMP_pressure;BME280_temperature;BME280_humidity;BME280_pressure;Samples;Min_cycle;Max_cycle;Signal;HPM_P1;HPM_P2
2023/04/04 00:00:32;;;;;;;4.90;1.80;;;-1.20;99.90;;;;;;5003470;28;20408;-81
2023/04/04 00:02:58;;;;;;;4.03;2.22;;;-1.20;99.90;;;;;;5004697;28;20037;-78
2023/04/04 00:05:23;;;;;;;4.43;2.22;;;-1.20;99.90;;;;;;5001162;28;20030;-80
2023/04/04 00:07:49;;;;;;;3.67;2.55;;;-1.20;99.90;;;;;;5005171;28;20053;-81
2023/04/04 00:10:16;;;;;;;3.42;1.80;;;-1.30;99.90;;;;;;4999799;28;20029;-80
2023/04/04 00:12:42;;;;;;;3.85;2.60;;;-1.30;99.90;;;;;;5005114;28;20022;-80
2023/04/04 00:15:08;;;;;;;2.08;1.73;;;-1.30;99.90;;;;;;4997101;28;20482;-79
2023/04/04 00:17:34;;;;;;;4.03;2.17;;;-1.30;99.90;;;;;;5004121;28;20084;-80
2023/04/04 00:20:00;;;;;;;5.00;1.90;;;-1.30;99.90;;;;;;5004765;28;20112;-80
2023/04/04 00:22:26;;;;;;;3.05;2.53;;;-1.30;99.90;;;;;;5001801;28;20371;-80
2023/04/04 00:24:51;;;;;;;8.00;2.05;;;-1.30;99.90;;;;;;5003998;28;20053;-80
2023/04/04 00:27:17;;;;;;;5.57;2.15;;;-1.30;99.90;;;;;;5004505;28;20022;-80
2023/04/04 00:29:42;;;;;;;4.05;2.08;;;-1.30;99.90;;;;;;5008125;28;20037;-79
2023/04/04 00:32:08;;;;;;;3.17;2.33;;;-1.40;99.90;;;;;;5000435;28;20045;-80
2023/04/04 00:34:35;;;;;;;5.70;2.28;;;-1.40;99.90;;;;;;4997803;28;20120;-80
2023/04/04 00:37:00;;;;;;;3.30;2.05;;;-1.40;99.90;;;;;;4994764;28;20134;-81
2023/04/04 00:39:26;;;;;;;3.47;1.88;;;-1.40;99.90;;;;;;4996781;28;20464;-80
2023/04/04 00:41:52;;;;;;;5.03;2.10;;;-1.50;99.90;;;;;;5008465;28;20075;-79
2023/04/04 00:44:17;;;;;;;3.72;1.88;;;-1.50;99.90;;;;;;5016054;28;20085;-80
2023/04/04 00:46:43;;;;;;;5.10;2.22;;;-1.40;99.90;;;;;;5021408;28;20188;-79
2023/04/04 00:49:10;;;;;;;2.67;2.17;;;-1.50;99.90;;;;;;5004722;28;20032;-80
2023/04/04 00:51:35;;;;;;;4.05;1.73;;;-1.40;99.90;;;;;;4997701;28;20459;-81
2023/04/04 00:54:01;;;;;;;3.63;2.10;;;-1.50;99.90;;;;;;5001459;28;20093;-80
2023/04/04 00:56:28;;;;;;;4.00;2.28;;;-1.50;99.90;;;;;;4998294;28;20053;-80
2023/04/04 00:58:55;;;;;;;4.82;2.67;;;-1.50;99.90;;;;;;4993673;28;20026;-80
2023/04/04 01:01:21;;;;;;;3.53;2.08;;;-1.50;99.90;;;;;;5004037;28;20468;-80
2023/04/04 01:03:47;;;;;;;3.55;2.50;;;-1.50;99.90;;;;;;4995761;28;20070;-80
2023/04/04 01:06:13;;;;;;;5.88;1.92;;;-1.60;99.90;;;;;;5005985;28;20026;-80
2023/04/04 01:08:40;;;;;;;3.67;2.38;;;-1.60;99.90;;;;;;5005997;28;20062;-80
2023/04/04 01:11:06;;;;;;;4.88;2.45;;;-1.60;99.90;;;;;;5013637;28;20099;-80
2023/04/04 01:13:32;;;;;;;3.00;1.90;;;-1.50;99.90;;;;;;5018665;28;20490;-79
2023/04/04 01:15:58;;;;;;;4.43;2.40;;;-1.50;99.90;;;;;;5006059;28;20043;-80
2023/04/04 01:18:26;;;;;;;4.35;2.40;;;-1.50;99.90;;;;;;5007283;28;20026;-80
2023/04/04 01:20:58;;;;;;;4.63;2.22;;;-1.50;99.90;;;;;;4997351;28;20031;-80
2023/04/04 01:23:35;;;;;;;4.93;1.98;;;-1.40;99.90;;;;;;5010521;28;20033;-79
2023/04/04 01:26:04;;;;;;;3.53;2.08;;;-1.40;99.90;;;;;;5006849;28;20038;-81
2023/04/04 01:28:30;;;;;;;2.70;1.90;;;-1.50;99.90;;;;;;5005505;28;20037;-79
2023/04/04 01:30:59;;;;;;;4.03;1.98;;;-1.50;99.90;;;;;;5022275;28;20218;-80
2023/04/04 01:33:29;;;;;;;3.97;1.95;;;-1.50;99.90;;;;;;5006856;28;20030;-80
2023/04/04 01:36:04;;;;;;;3.45;1.92;;;-1.50;99.90;;;;;;4998560;28;20057;-80
2023/04/04 01:38:40;;;;;;;4.35;2.28;;;-1.60;99.90;;;;;;4999992;28;20234;-80
2023/04/04 01:41:07;;;;;;;;;;;-1.60;99.90;;;;;;5004224;28;20112;-80
2023/04/04 01:43:33;;;;;;;3.42;1.80;;;-1.60;99.90;;;;;;5003160;28;19913;-79
2023/04/04 01:45:59;;;;;;;5.22;2.22;;;-1.60;99.90;;;;;;4996737;28;20034;-79
2023/04/04 01:48:26;;;;;;;5.35;2.30;;;-1.60;99.90;;;;;;4995734;28;20104;-80
2023/04/04 01:50:51;;;;;;;3.72;2.05;;;-1.60;99.90;;;;;;5007436;28;20034;-79
2023/04/04 01:53:17;;;;;;;2.10;1.90;;;-1.60;99.90;;;;;;4997843;28;20022;-80
2023/04/04 01:55:43;;;;;;;2.42;1.70;;;-1.60;99.90;;;;;;4997562;28;20034;-80
2023/04/04 01:58:09;;;;;;;2.35;2.13;;;-1.60;99.90;;;;;;5004959;28;20070;-79
2023/04/04 02:00:34;;;;;;;3.05;2.20;;;-1.70;99.90;;;;;;4998907;28;20034;-79
2023/04/04 02:03:01;;;;;;;2.67;1.85;;;-1.70;99.90;;;;;;5003535;28;20041;-79
2023/04/04 02:05:27;;;;;;;4.35;2.13;;;-1.70;99.90;;;;;;5016883;28;20034;-79
2023/04/04 02:07:52;;;;;;;5.65;2.42;;;-1.70;99.90;;;;;;4996552;28;20030;-80
2023/04/04 02:10:18;;;;;;;8.70;2.65;;;-1.70;99.90;;;;;;5003522;28;20503;-79
2023/04/04 02:12:44;;;;;;;2.75;1.70;;;-1.70;99.90;;;;;;5004487;28;20124;-78
2023/04/04 02:15:10;;;;;;;3.10;2.33;;;-1.70;99.90;;;;;;5020206;28;20026;-80
2023/04/04 02:17:36;;;;;;;3.55;2.00;;;-1.70;99.90;;;;;;5006731;28;20389;-80
2023/04/04 02:20:02;;;;;;;2.33;1.98;;;-1.70;99.90;;;;;;4997687;28;20022;-79
2023/04/04 02:22:28;;;;;;;3.45;2.00;;;-1.70;99.90;;;;;;5023962;28;20022;-80
2023/04/04 02:24:56;;;;;;;6.03;2.13;;;-1.70;99.90;;;;;;5005464;28;20125;-80
2023/04/04 02:27:22;;;;;;;4.10;2.20;;;-1.70;99.90;;;;;;5004438;28;20551;-81
2023/04/04 02:29:48;;;;;;;3.72;1.70;;;-1.70;99.90;;;;;;5004575;28;20058;-80
2023/04/04 02:32:13;;;;;;;2.30;2.10;;;-1.80;99.90;;;;;;5004469;28;20118;-81
2023/04/04 02:34:39;;;;;;;3.22;2.67;;;-1.80;99.90;;;;;;5019535;28;20452;-80
2023/04/04 02:37:04;;;;;;;3.35;2.30;;;-1.80;99.90;;;;;;5012481;28;20022;-80
2023/04/04 02:39:30;;;;;;;2.33;1.58;;;-1.80;99.90;;;;;;5010905;28;20132;-79
2023/04/04 02:41:55;;;;;;;2.45;2.20;;;-1.80;99.90;;;;;;5002507;28;20351;-80
2023/04/04 02:44:21;;;;;;;3.08;1.85;;;-1.80;99.90;;;;;;5003848;28;20026;-81
2023/04/04 02:46:47;;;;;;;4.82;2.10;;;-1.80;99.90;;;;;;5005223;28;20125;-78
2023/04/04 02:49:13;;;;;;;4.03;2.05;;;-1.80;99.90;;;;;;5004557;28;20615;-80
2023/04/04 02:51:38;;;;;;;2.15;1.83;;;-1.80;99.90;;;;;;5004770;28;20125;-78
2023/04/04 02:54:04;;;;;;;3.35;2.05;;;-1.80;99.90;;;;;;5000844;28;20555;-80
2023/04/04 02:56:31;;;;;;;4.80;2.03;;;-1.90;99.90;;;;;;4995502;28;20500;-80
2023/04/04 02:58:56;;;;;;;4.45;1.95;;;-1.90;99.90;;;;;;5001012;28;20022;-81
2023/04/04 03:01:22;;;;;;;3.55;2.33;;;-1.90;99.90;;;;;;5000935;28;20045;-80
2023/04/04 03:03:47;;;;;;;2.22;1.63;;;-1.90;99.90;;;;;;5003183;28;20049;-80
2023/04/04 03:06:13;;;;;;;3.58;2.03;;;-1.90;99.90;;;;;;5021585;28;20116;-80
2023/04/04 03:08:39;;;;;;;3.10;2.33;;;-1.90;99.90;;;;;;4997846;28;20026;-81
2023/04/04 03:11:05;;;;;;;2.88;2.17;;;-1.90;99.90;;;;;;5000655;28;20508;-80
2023/04/04 03:13:31;;;;;;;3.72;2.20;;;-1.90;99.90;;;;;;4993792;28;20125;-80
2023/04/04 03:16:05;;;;;;;4.32;2.17;;;-1.90;99.90;;;;;;4999197;28;20073;-80
2023/04/04 03:18:32;;;;;;;2.95;2.40;;;-1.90;99.90;;;;;;5002137;28;20022;-79
2023/04/04 03:20:57;;;;;;;5.38;1.98;;;-1.90;99.90;;;;;;5002213;28;20088;-79
2023/04/04 03:23:23;;;;;;;2.65;1.88;;;-1.90;99.90;;;;;;4993965;28;20151;-78
2023/04/04 03:25:49;;;;;;;5.07;2.40;;;-1.90;99.90;;;;;;5002191;28;20034;-80
2023/04/04 03:28:14;;;;;;;7.22;2.17;;;-1.90;99.90;;;;;;4998591;28;20033;-81
2023/04/04 03:30:40;;;;;;;2.58;2.08;;;-1.90;99.90;;;;;;4992404;28;20042;-81
2023/04/04 03:33:08;;;;;;;4.78;2.17;;;-1.90;99.90;;;;;;5007864;28;20393;-79
2023/04/04 03:35:40;;;;;;;3.42;1.90;;;-1.90;99.90;;;;;;5021243;28;20093;-79
2023/04/04 03:38:07;;;;;;;4.68;2.28;;;-1.90;99.90;;;;;;5007890;28;20025;-79
2023/04/04 03:40:33;;;;;;;3.15;2.30;;;-1.90;99.90;;;;;;5006124;28;20486;-80
2023/04/04 03:42:58;;;;;;;2.17;1.85;;;-1.90;99.90;;;;;;5005516;28;20061;-80
2023/04/04 03:45:24;;;;;;;4.85;2.47;;;-1.90;99.90;;;;;;4989210;28;20065;-79
2023/04/04 03:47:50;;;;;;;4.55;2.03;;;-1.80;99.90;;;;;;5007967;28;20793;-80
2023/04/04 03:50:16;;;;;;;2.72;2.17;;;-1.90;99.90;;;;;;5008725;28;20018;-79
2023/04/04 03:52:41;;;;;;;3.13;1.80;;;-1.80;99.90;;;;;;5004403;28;20026;-79
2023/04/04 03:55:08;;;;;;;3.55;2.33;;;-1.80;99.90;;;;;;5008216;28;20057;-80
2023/04/04 03:57:34;;;;;;;2.88;2.03;;;-1.80;99.90;;;;;;5005056;28;20025;-80
2023/04/04 04:00:01;;;;;;;3.45;2.50;;;-1.80;99.90;;;;;;4997504;28;20129;-80
2023/04/04 04:02:27;;;;;;;3.88;2.60;;;-1.80;99.90;;;;;;4994855;28;20548;-80
2023/04/04 04:04:52;;;;;;;4.57;2.40;;;-1.80;99.90;;;;;;4998780;28;20022;-79
2023/04/04 04:07:18;;;;;;;4.07;2.28;;;-1.80;99.90;;;;;;4994879;28;20038;-80
2023/04/04 04:09:43;;;;;;;4.05;2.58;;;-1.80;99.90;;;;;;5005687;28;20079;-81
2023/04/04 04:12:09;;;;;;;4.57;2.38;;;-1.70;99.90;;;;;;5001845;28;20022;-79
2023/04/04 04:14:34;;;;;;;3.65;2.35;;;-1.80;99.90;;;;;;4994864;28;20110;-80
2023/04/04 04:17:00;;;;;;;3.65;2.33;;;-1.70;99.90;;;;;;5004565;28;20245;-80
2023/04/04 04:19:25;;;;;;;2.72;2.17;;;-1.80;99.90;;;;;;4998665;28;20037;-80
2023/04/04 04:21:51;;;;;;;4.20;2.25;;;-1.70;99.90;;;;;;5008609;28;20037;-80
2023/04/04 04:24:16;;;;;;;2.78;1.95;;;-1.70;99.90;;;;;;4999746;28;20551;-80
2023/04/04 04:26:42;;;;;;;2.60;1.90;;;-1.70;99.90;;;;;;5007981;28;20057;-78
2023/04/04 04:29:08;;;;;;;3.60;2.30;;;-1.70;99.90;;;;;;5007817;28;20084;-78
2023/04/04 04:31:33;;;;;;;5.13;2.03;;;-1.70;99.90;;;;;;5009846;28;20096;-78
2023/04/04 04:33:59;;;;;;;3.75;2.33;;;-1.70;99.90;;;;;;4995540;28;20027;-79
2023/04/04 04:36:25;;;;;;;4.60;2.30;;;-1.70;99.90;;;;;;4999440;28;20342;-79
2023/04/04 04:38:50;;;;;;;4.30;2.13;;;-1.70;99.90;;;;;;5001684;28;20027;-80
2023/04/04 04:41:16;;;;;;;3.38;1.77;;;-1.70;99.90;;;;;;5003396;28;20091;-79
2023/04/04 04:43:41;;;;;;;4.18;2.05;;;-1.70;99.90;;;;;;5001196;28;20035;-79
2023/04/04 04:46:10;;;;;;;3.50;2.33;;;-1.70;99.90;;;;;;4989697;28;20040;-79
2023/04/04 04:48:35;;;;;;;6.32;3.20;;;-1.70;99.90;;;;;;5000415;28;20042;-79
2023/04/04 04:51:01;;;;;;;6.30;3.78;;;-1.70;99.90;;;;;;4988764;28;20034;-79
2023/04/04 04:53:26;;;;;;;5.68;2.80;;;-1.70;99.90;;;;;;4998958;28;20093;-79
2023/04/04 04:55:52;;;;;;;5.90;2.28;;;-1.70;99.90;;;;;;4991884;28;20034;-79
2023/04/04 04:58:22;;;;;;;4.38;2.65;;;-1.70;99.90;;;;;;5004002;28;20032;-79
2023/04/04 05:00:48;;;;;;;6.13;2.38;;;-1.70;99.90;;;;;;4997004;28;20039;-80
2023/04/04 05:03:14;;;;;;;4.38;2.92;;;-1.80;99.90;;;;;;5001696;28;20446;-79
2023/04/04 05:05:41;;;;;;;2.50;2.10;;;-1.70;99.90;;;;;;4986657;28;20126;-80
2023/04/04 05:08:06;;;;;;;6.35;2.70;;;-1.80;99.90;;;;;;4995501;28;20042;-80
2023/04/04 05:10:32;;;;;;;3.33;2.40;;;-1.80;99.90;;;;;;4992148;28;20490;-81
2023/04/04 05:12:57;;;;;;;5.13;2.85;;;-1.80;99.90;;;;;;4999975;28;20428;-79
2023/04/04 05:15:28;;;;;;;45.50;7.38;;;-1.70;99.90;;;;;;4992997;28;20394;-78
2023/04/04 05:17:53;;;;;;;6.10;2.78;;;-1.70;99.90;;;;;;5001040;28;20026;-80
2023/04/04 05:20:19;;;;;;;4.05;2.30;;;-1.70;99.90;;;;;;4992385;28;20030;-80
2023/04/04 05:22:45;;;;;;;3.78;2.55;;;-1.70;99.90;;;;;;4999305;28;20026;-79
2023/04/04 05:25:12;;;;;;;4.93;2.38;;;-1.70;99.90;;;;;;4996711;28;20120;-79
2023/04/04 05:27:38;;;;;;;2.63;2.08;;;-1.70;99.90;;;;;;4989862;28;20037;-80
2023/04/04 05:30:04;;;;;;;4.22;2.22;;;-1.60;99.90;;;;;;4992596;28;20227;-78
2023/04/04 05:32:30;;;;;;;4.57;2.50;;;-1.60;99.90;;;;;;5004746;28;20623;-79
2023/04/04 05:34:56;;;;;;;3.55;2.60;;;-1.60;99.90;;;;;;4985208;28;20113;-80
2023/04/04 05:37:21;;;;;;;5.22;2.42;;;-1.60;99.90;;;;;;5008611;28;20037;-79
2023/04/04 05:39:47;;;;;;;3.45;2.30;;;-1.50;99.90;;;;;;4987068;28;20038;-78
2023/04/04 05:42:13;;;;;;;3.50;2.20;;;-1.40;99.90;;;;;;5012877;28;20030;-79
2023/04/04 05:44:38;;;;;;;4.40;2.63;;;-1.40;99.90;;;;;;5005796;28;20084;-79
2023/04/04 05:47:04;;;;;;;4.80;2.42;;;-1.40;99.90;;;;;;4997436;28;20037;-79
2023/04/04 05:49:30;;;;;;;2.55;2.35;;;-1.30;99.90;;;;;;4996709;28;20102;-79
2023/04/04 05:51:55;;;;;;;3.47;2.42;;;-1.30;99.90;;;;;;5005144;28;20022;-80
2023/04/04 05:54:21;;;;;;;6.07;2.72;;;-1.20;99.90;;;;;;5023941;28;20026;-80
2023/04/04 05:56:47;;;;;;;4.90;2.47;;;-1.20;99.90;;;;;;4997282;28;20121;-80
2023/04/04 05:59:13;;;;;;;6.22;2.28;;;-1.20;99.90;;;;;;5006232;28;20160;-79
2023/04/04 06:01:39;;;;;;;3.22;2.60;;;-1.10;99.90;;;;;;5005359;28;20400;-80
2023/04/04 06:04:05;;;;;;;7.65;2.65;;;-1.00;99.90;;;;;;5011241;28;20034;-80
2023/04/04 06:06:32;;;;;;;4.03;2.53;;;-1.00;99.90;;;;;;5004151;28;20051;-80
2023/04/04 06:08:57;;;;;;;3.30;2.90;;;-1.00;99.90;;;;;;5009993;28;20046;-80
2023/04/04 06:11:23;;;;;;;3.15;2.22;;;-1.00;99.90;;;;;;5005288;28;20036;-80
2023/04/04 06:13:49;;;;;;;4.35;2.83;;;-0.90;99.90;;;;;;4998061;28;20026;-80
2023/04/04 06:16:15;;;;;;;3.70;2.17;;;-0.90;99.90;;;;;;5003446;28;20037;-79
2023/04/04 06:18:40;;;;;;;4.65;2.30;;;-0.90;99.90;;;;;;5006046;28;20022;-80
2023/04/04 06:21:06;;;;;;;3.50;2.40;;;-0.90;99.90;;;;;;4999017;28;20531;-80
2023/04/04 06:23:31;;;;;;;4.05;2.50;;;-0.90;99.90;;;;;;5010117;28;20045;-80
2023/04/04 06:25:57;;;;;;;5.07;2.05;;;-0.80;99.90;;;;;;5009494;28;20137;-80
2023/04/04 06:28:22;;;;;;;2.97;2.10;;;-0.80;99.90;;;;;;5004127;28;20014;-81
2023/04/04 06:30:49;;;;;;;3.78;2.55;;;-0.80;99.90;;;;;;5009779;28;20034;-80
2023/04/04 06:33:14;;;;;;;4.43;2.38;;;-0.70;99.90;;;;;;5008260;28;20027;-80
2023/04/04 06:35:40;;;;;;;3.47;2.50;;;-0.70;99.90;;;;;;5010649;28;20528;-80
2023/04/04 06:38:06;;;;;;;3.95;2.47;;;-0.60;99.90;;;;;;5009216;28;20021;-80
2023/04/04 06:40:31;;;;;;;5.30;2.70;;;-0.60;99.90;;;;;;5005967;28;20030;-80
2023/04/04 06:42:57;;;;;;;5.38;2.63;;;-0.60;99.90;;;;;;5008622;28;20528;-80
2023/04/04 06:45:23;;;;;;;5.32;2.63;;;-0.60;99.90;;;;;;5008355;28;20014;-80
2023/04/04 06:47:50;;;;;;;6.45;2.38;;;-0.50;99.90;;;;;;5010665;28;20029;-79
2023/04/04 06:50:16;;;;;;;4.68;2.35;;;-0.50;99.90;;;;;;5004870;28;20018;-80
2023/04/04 06:52:43;;;;;;;4.75;2.65;;;-0.50;99.90;;;;;;5005819;28;20027;-79
2023/04/04 06:55:09;;;;;;;5.30;3.05;;;-0.40;99.90;;;;;;5020505;28;20022;-79
2023/04/04 06:57:35;;;;;;;4.50;2.55;;;-0.40;99.90;;;;;;5006689;28;20021;-79
2023/04/04 07:00:02;;;;;;;5.32;2.15;;;-0.30;99.90;;;;;;5006598;28;20430;-80
2023/04/04 07:02:27;;;;;;;4.43;2.35;;;-0.20;99.90;;;;;;5005111;28;20026;-80
2023/04/04 07:04:53;;;;;;;2.67;2.15;;;-0.20;99.90;;;;;;5008724;28;20040;-79
2023/04/04 07:07:18;;;;;;;3.42;2.42;;;-0.10;99.90;;;;;;5006256;28;20556;-81
2023/04/04 07:09:44;;;;;;;4.25;2.55;;;-0.10;99.90;;;;;;4997170;28;20031;-80
2023/04/04 07:12:10;;;;;;;5.72;2.38;;;0.00;99.90;;;;;;5009330;28;20081;-81
2023/04/04 07:14:36;;;;;;;6.28;2.05;;;0.20;99.90;;;;;;5012392;28;20046;-80
2023/04/04 07:17:02;;;;;;;3.10;2.30;;;0.30;99.90;;;;;;5008111;28;20109;-80
2023/04/04 07:19:28;;;;;;;4.05;2.05;;;0.30;99.90;;;;;;5024432;28;20022;-81
2023/04/04 07:21:54;;;;;;;5.68;2.70;;;0.60;99.90;;;;;;5027322;28;20025;-80
2023/04/04 07:24:20;;;;;;;3.38;2.13;;;0.70;99.90;;;;;;5007639;28;20486;-80
2023/04/04 07:26:46;;;;;;;4.47;1.92;;;0.90;99.90;;;;;;5012333;28;20022;-81
2023/04/04 07:29:12;;;;;;;5.05;1.90;;;1.10;99.90;;;;;;5005589;28;20033;-81
2023/04/04 07:31:37;;;;;;;2.95;1.98;;;1.40;99.90;;;;;;5008359;28;20038;-81
2023/04/04 07:34:03;;;;;;;6.07;2.30;;;1.60;99.90;;;;;;5004790;28;20650;-80
2023/04/04 07:36:28;;;;;;;3.60;2.10;;;1.90;99.90;;;;;;5004476;28;20029;-81
2023/04/04 07:38:54;;;;;;;2.72;2.35;;;2.10;99.90;;;;;;5007012;28;20084;-82
2023/04/04 07:41:21;;;;;;;3.53;1.98;;;2.30;99.90;;;;;;5005005;28;20033;-80
2023/04/04 07:43:47;;;;;;;4.10;1.70;;;2.60;99.90;;;;;;5014381;28;20575;-82
2023/04/04 07:46:13;;;;;;;2.40;1.58;;;2.80;99.90;;;;;;5004184;28;20034;-81
2023/04/04 07:48:39;;;;;;;1.88;1.00;;;3.10;99.90;;;;;;5007923;28;20026;-81
2023/04/04 07:51:05;;;;;;;4.63;1.20;;;3.30;99.90;;;;;;5008761;28;20025;-81
2023/04/04 07:53:31;;;;;;;2.80;1.40;;;3.40;99.90;;;;;;5003172;28;20080;-82
2023/04/04 07:55:57;;;;;;;0.75;0.75;;;3.50;99.90;;;;;;4993740;28;20023;-81
2023/04/04 07:58:22;;;;;;;3.30;1.15;;;3.70;99.90;;;;;;5007268;28;20075;-81
2023/04/04 08:00:48;;;;;;;2.05;1.40;;;3.80;99.90;;;;;;4994727;28;20093;-81
2023/04/04 08:03:13;;;;;;;2.03;0.75;;;4.00;99.90;;;;;;5010730;28;20030;-81
2023/04/04 08:05:41;;;;;;;1.83;1.20;;;4.20;99.90;;;;;;4999267;28;20434;-81
2023/04/04 08:08:06;;;;;;;2.70;0.90;;;4.50;99.90;;;;;;4996481;28;20025;-80
2023/04/04 08:10:32;;;;;;;1.27;1.08;;;4.80;99.90;;;;;;5003012;28;20034;-81
2023/04/04 08:12:58;;;;;;;2.80;0.90;;;5.00;99.90;;;;;;5002608;28;20084;-80
2023/04/04 08:15:23;;;;;;;1.10;1.00;;;5.20;98.70;;;;;;5020704;28;20068;-80
2023/04/04 08:17:49;;;;;;;1.95;1.20;;;5.30;99.90;;;;;;5000365;28;20034;-80
2023/04/04 08:20:14;;;;;;;1.23;0.60;;;5.50;99.90;;;;;;5019293;28;20125;-80
2023/04/04 08:22:41;;;;;;;1.77;1.10;;;5.70;99.10;;;;;;4999842;28;20037;-81
2023/04/04 08:25:07;;;;;;;1.65;0.88;;;5.80;99.90;;;;;;5004328;28;20043;-80
2023/04/04 08:27:33;;;;;;;2.42;0.98;;;5.90;99.90;;;;;;5004721;28;20081;-81
2023/04/04 08:29:59;;;;;;;3.88;1.52;;;6.00;99.90;;;;;;5000548;28;20026;-81
2023/04/04 08:32:25;;;;;;;1.50;0.90;;;6.10;99.80;;;;;;5005977;28;20026;-80
2023/04/04 08:34:50;;;;;;;1.80;1.02;;;6.10;97.70;;;;;;4999316;28;20038;-81
2023/04/04 08:37:17;;;;;;;1.30;1.05;;;6.10;98.40;;;;;;5006393;28;20021;-80
2023/04/04 08:39:45;;;;;;;1.35;1.13;;;6.10;98.10;;;;;;4999763;28;20041;-81
2023/04/04 08:42:13;;;;;;;1.80;1.00;;;6.30;99.90;;;;;;5008940;28;20026;-81
2023/04/04 08:44:44;;;;;;;1.15;0.88;;;6.40;99.00;;;;;;5001480;28;20026;-80
2023/04/04 08:47:10;;;;;;;2.05;1.05;;;6.50;95.00;;;;;;4993740;28;20037;-81
2023/04/04 08:49:42;;;;;;;2.65;1.10;;;6.70;96.50;;;;;;5003024;28;20071;-81
2023/04/04 08:52:11;;;;;;;4.60;1.20;;;6.80;93.10;;;;;;4993980;28;20037;-80
2023/04/04 08:54:38;;;;;;;1.27;0.98;;;6.50;91.30;;;;;;5002075;28;20022;-80
2023/04/04 08:57:04;;;;;;;2.40;1.10;;;6.40;92.80;;;;;;5032907;28;20018;-80
2023/04/04 08:59:30;;;;;;;3.03;1.20;;;6.40;93.60;;;;;;5023001;28;20030;-81
2023/04/04 09:02:22;;;;;;;4.72;0.75;;;6.70;93.40;;;;;;5002052;28;20043;-82
2023/04/04 09:04:48;;;;;;;1.77;1.00;;;6.90;93.00;;;;;;5006824;28;20108;-81
2023/04/04 09:07:15;;;;;;;1.35;0.90;;;7.00;95.20;;;;;;4999328;28;20026;-81
2023/04/04 09:09:45;;;;;;;1.95;1.10;;;7.10;94.60;;;;;;5005776;28;20038;-80
2023/04/04 09:12:15;;;;;;;1.95;0.85;;;7.00;89.40;;;;;;4992230;28;20076;-81
2023/04/04 09:14:42;;;;;;;1.30;0.90;;;6.70;93.40;;;;;;5004932;28;20033;-80
2023/04/04 09:17:09;;;;;;;1.63;0.77;;;7.00;92.00;;;;;;4998701;28;20049;-79
2023/04/04 09:19:36;;;;;;;3.58;1.20;;;7.30;94.20;;;;;;4996929;28;20030;-81
2023/04/04 09:22:05;;;;;;;2.38;0.80;;;7.40;91.50;;;;;;5004585;28;20079;-81
2023/04/04 09:24:43;;;;;;;2.55;0.88;;;7.40;93.00;;;;;;5008427;28;20026;-80
2023/04/04 09:27:10;;;;;;;1.58;0.82;;;7.70;92.80;;;;;;4999597;28;20033;-79
2023/04/04 09:29:40;;;;;;;1.98;1.02;;;7.90;90.00;;;;;;5000913;28;20035;-81
2023/04/04 09:32:13;;;;;;;2.33;0.98;;;7.80;91.80;;;;;;5010655;28;20037;-80
2023/04/04 09:34:40;;;;;;;1.77;0.98;;;8.00;93.10;;;;;;4981694;28;20066;-81
2023/04/04 09:37:06;;;;;;;1.75;0.82;;;8.10;89.90;;;;;;5012893;28;20037;-80
2023/04/04 09:39:33;;;;;;;1.00;0.50;;;8.00;90.30;;;;;;5003508;28;20018;-80
2023/04/04 09:42:00;;;;;;;1.92;0.75;;;8.10;89.30;;;;;;5023352;28;20026;-81
2023/04/04 09:44:28;;;;;;;1.65;0.75;;;8.20;87.70;;;;;;5007331;28;20031;-80
2023/04/04 09:47:26;;;;;;;2.83;0.95;;;8.10;83.00;;;;;;5002716;28;20046;-81
2023/04/04 09:49:52;;;;;;;1.95;0.80;;;8.00;84.60;;;;;;4997678;28;20030;-81
2023/04/04 09:52:19;;;;;;;1.15;0.68;;;7.90;86.30;;;;;;5005432;28;20036;-81
2023/04/04 09:54:54;;;;;;;1.10;0.70;;;8.00;90.30;;;;;;5004439;28;20034;-81
2023/04/04 09:57:20;;;;;;;1.25;0.60;;;7.90;79.80;;;;;;5006035;28;20673;-82
2023/04/04 09:59:46;;;;;;;1.73;0.85;;;7.80;83.00;;;;;;5007516;28;20109;-81
2023/04/04 10:02:12;;;;;;;2.10;0.75;;;7.90;80.70;;;;;;5005031;28;20056;-81
2023/04/04 10:04:38;;;;;;;1.25;0.52;;;7.70;78.30;;;;;;5011119;28;20177;-82
2023/04/04 10:07:03;;;;;;;4.20;0.73;;;7.80;84.20;;;;;;5006577;28;20516;-82
2023/04/04 10:09:29;;;;;;;3.00;0.80;;;8.00;82.00;;;;;;5008572;28;20034;-82
2023/04/04 10:12:08;;;;;;;1.70;0.90;;;8.10;81.40;;;;;;5021527;28;20058;-81
2023/04/04 10:14:34;;;;;;;0.77;0.60;;;8.10;82.50;;;;;;5003650;28;20499;-81
2023/04/04 10:17:05;;;;;;;1.33;0.73;;;8.30;81.00;;;;;;5007209;28;20545;-80
2023/04/04 10:19:31;;;;;;;1.63;0.85;;;8.40;81.70;;;;;;5006764;28;20057;-82
2023/04/04 10:21:57;;;;;;;1.77;0.55;;;8.50;77.10;;;;;;5025507;28;20030;-82
2023/04/04 10:24:24;;;;;;;0.40;0.40;;;8.70;75.20;;;;;;5006489;28;20018;-81
2023/04/04 10:26:49;;;;;;;0.93;0.60;;;8.80;83.30;;;;;;5027129;28;20476;-82
2023/04/04 10:29:15;;;;;;;1.95;0.98;;;8.90;84.60;;;;;;5005625;28;20026;-81
2023/04/04 10:31:43;;;;;;;1.02;0.60;;;8.90;75.20;;;;;;5006778;28;20033;-82
2023/04/04 10:34:24;;;;;;;1.02;0.50;;;9.00;78.80;;;;;;4994982;28;20044;-82
2023/04/04 10:37:14;;;;;;;1.67;0.60;;;9.00;79.70;;;;;;5008936;28;20067;-82
2023/04/04 10:39:52;;;;;;;2.47;0.73;;;9.00;72.60;;;;;;5003226;28;20022;-81
2023/04/04 10:42:18;;;;;;;1.58;0.77;;;9.10;76.90;;;;;;5006095;28;20022;-82
2023/04/04 10:44:45;;;;;;;1.25;0.80;;;9.00;72.70;;;;;;5005197;28;20520;-81
2023/04/04 10:47:18;;;;;;;4.55;1.02;;;8.90;74.50;;;;;;5004925;28;20456;-82
2023/04/04 10:49:45;;;;;;;0.93;0.50;;;8.40;71.80;;;;;;5006092;28;20049;-81
2023/04/04 10:52:13;;;;;;;1.38;0.90;;;8.00;75.30;;;;;;5005996;28;20114;-80
2023/04/04 10:54:41;;;;;;;3.13;0.80;;;8.10;75.10;;;;;;5006707;28;20034;-80
2023/04/04 10:57:06;;;;;;;0.63;0.57;;;7.90;72.60;;;;;;5003196;28;20022;-81
2023/04/04 10:59:32;;;;;;;0.82;0.63;;;7.90;75.10;;;;;;5008451;28;20025;-81
2023/04/04 11:01:59;;;;;;;0.98;0.73;;;8.10;74.70;;;;;;5004086;28;20034;-81
2023/04/04 11:04:34;;;;;;;1.02;0.77;;;8.20;73.90;;;;;;5016263;28;20026;-82
2023/04/04 11:07:08;;;;;;;2.05;0.70;;;8.50;75.30;;;;;;5008873;28;20030;-80
2023/04/04 11:09:46;;;;;;;2.50;0.80;;;8.70;75.20;;;;;;5010986;28;20022;-82
2023/04/04 11:12:18;;;;;;;1.55;0.70;;;8.80;74.00;;;;;;5001621;28;20093;-82
2023/04/04 11:15:09;;;;;;;1.63;0.85;;;9.00;73.50;;;;;;5008413;28;20423;-82
2023/04/04 11:17:55;;;;;;;0.88;0.65;;;9.20;71.10;;;;;;4998434;28;20027;-81
2023/04/04 11:20:32;;;;;;;1.05;0.68;;;9.20;69.80;;;;;;5005623;28;20075;-81
2023/04/04 11:23:06;;;;;;;1.25;0.47;;;9.30;70.90;;;;;;5005328;28;20113;-82
2023/04/04 11:25:38;;;;;;;2.70;0.80;;;9.40;69.90;;;;;;5009998;28;20141;-82
2023/04/04 11:28:27;;;;;;;1.27;0.52;;;9.40;66.30;;;;;;5007261;28;20065;-82
2023/04/04 11:31:18;;;;;;;1.00;0.75;;;9.30;67.50;;;;;;5002555;28;20033;-81
2023/04/04 11:34:02;;;;;;;1.15;0.45;;;9.30;70.10;;;;;;5008877;28;20034;-82
2023/04/04 11:36:34;;;;;;;1.80;0.80;;;9.30;72.60;;;;;;5002166;28;20534;-82
2023/04/04 11:39:15;;;;;;;1.40;0.90;;;9.20;73.40;;;;;;5008593;28;20048;-80
2023/04/04 11:41:51;;;;;;;1.98;0.73;;;9.20;69.00;;;;;;5008235;28;20179;-81
2023/04/04 11:44:17;;;;;;;;;;;9.10;67.50;;;;;;5011009;28;20040;-80
2023/04/04 11:46:44;;;;;;;4.25;0.95;;;9.00;71.80;;;;;;4995604;28;19960;-82
2023/04/04 11:49:10;;;;;;;2.20;0.50;;;8.90;71.20;;;;;;5014765;28;20507;-81
2023/04/04 11:51:39;;;;;;;2.63;0.90;;;9.10;74.60;;;;;;4993244;28;20529;-81
2023/04/04 11:54:14;;;;;;;1.63;0.70;;;9.00;66.40;;;;;;4999480;28;20069;-80
2023/04/04 11:56:41;;;;;;;3.33;0.90;;;8.60;66.40;;;;;;5002227;28;20025;-81
2023/04/04 11:59:06;;;;;;;1.38;0.82;;;8.60;66.30;;;;;;4990356;28;20026;-81
2023/04/04 12:01:32;;;;;;;1.70;0.95;;;8.40;69.00;;;;;;4993365;28;20660;-81
2023/04/04 12:04:00;;;;;;;1.90;0.65;;;8.50;68.60;;;;;;5006737;28;20026;-80
2023/04/04 12:06:31;;;;;;;2.17;0.85;;;8.70;70.20;;;;;;5001030;28;20056;-81
2023/04/04 12:08:57;;;;;;;1.75;0.80;;;8.80;67.20;;;;;;5012072;28;20027;-81
2023/04/04 12:11:25;;;;;;;2.35;0.70;;;8.60;65.30;;;;;;5022870;28;20029;-82
2023/04/04 12:13:51;;;;;;;1.40;0.95;;;8.50;67.80;;;;;;5000558;28;20039;-80
2023/04/04 12:16:19;;;;;;;2.15;0.80;;;8.40;67.60;;;;;;5006499;28;20417;-81
2023/04/04 12:18:45;;;;;;;1.10;0.55;;;8.40;66.00;;;;;;5002515;28;20029;-82
2023/04/04 12:21:10;;;;;;;1.05;0.60;;;8.40;65.00;;;;;;5005981;28;20040;-81
2023/04/04 12:23:36;;;;;;;1.13;0.77;;;8.30;66.20;;;;;;5007216;28;20064;-80
2023/04/04 12:26:04;;;;;;;1.02;0.70;;;8.50;71.10;;;;;;5023969;28;20064;-80
2023/04/04 12:28:32;;;;;;;0.77;0.40;;;8.60;65.70;;;;;;5038554;28;20022;-80
2023/04/04 12:31:04;;;;;;;1.70;0.70;;;8.30;65.10;;;;;;5011696;28;20050;-82
2023/04/04 12:33:32;;;;;;;1.95;0.90;;;8.10;65.70;;;;;;5003380;28;20473;-80
2023/04/04 12:35:59;;;;;;;1.30;0.95;;;8.20;68.50;;;;;;4998409;28;20030;-81
2023/04/04 12:38:25;;;;;;;1.73;1.00;;;8.40;67.90;;;;;;5008374;28;20038;-80
2023/04/04 12:40:51;;;;;;;4.35;0.75;;;8.70;68.90;;;;;;5002422;28;20029;-82
2023/04/04 12:43:19;;;;;;;1.52;0.55;;;8.90;69.20;;;;;;5006276;28;20396;-81
2023/04/04 12:45:45;;;;;;;1.75;0.70;;;9.10;69.30;;;;;;4991462;28;20039;-82
2023/04/04 12:48:12;;;;;;;1.00;0.50;;;9.30;70.20;;;;;;4999743;28;20038;-81
2023/04/04 12:50:56;;;;;;;2.58;0.80;;;9.50;71.30;;;;;;4997394;28;20076;-82
2023/04/04 12:53:27;;;;;;;2.25;0.93;;;9.70;70.70;;;;;;5004889;28;20057;-82